sensor_id;sensor_type;location;lat;lon;timestamp;pressure;altitude;pressure_sealevel;temperature;humidity
39435;BME280;66825;51.880;-0.518;2023-07-28T00:01:55;99555.91;;;22.78;50.45
39435;BME280;66825;51.880;-0.518;2023-07-28T00:04:20;99553.88;;;22.75;50.50
39435;BME280;66825;51.880;-0.518;2023-07-28T00:06:45;99538.38;;;22.67;50.43
39435;BME280;66825;51.880;-0.518;2023-07-28T00:09:11;99549.97;;;22.76;50.37
39435;BME280;66825;51.880;-0.518;2023-07-28T00:11:36;99546.44;;;22.76;50.47
39435;BME280;66825;51.880;-0.518;2023-07-28T00:14:02;99544.84;;;22.75;50.46
39435;BME280;66825;51.880;-0.518;2023-07-28T00:16:27;99545.63;;;22.75;50.62
39435;BME280;66825;51.880;-0.518;2023-07-28T00:18:53;99550.34;;;22.75;50.64
39435;BME280;66825;51.880;-0.518;2023-07-28T00:21:18;99546.78;;;22.74;50.35
39435;BME280;66825;51.880;-0.518;2023-07-28T00:23:43;99556.16;;;22.73;50.49
39435;BME280;66825;51.880;-0.518;2023-07-28T00:26:09;99547.13;;;22.73;50.45
39435;BME280;66825;51.880;-0.518;2023-07-28T00:28:34;99544.41;;;22.73;50.40
39435;BME280;66825;51.880;-0.518;2023-07-28T00:31:00;99496.88;;;22.36;50.32
39435;BME280;66825;51.880;-0.518;2023-07-28T00:33:25;99550.97;;;22.68;50.43
39435;BME280;66825;51.880;-0.518;2023-07-28T00:35:51;99558.50;;;22.71;50.48
39435;BME280;66825;51.880;-0.518;2023-07-28T00:38:16;99557.69;;;22.71;50.43
39435;BME280;66825;51.880;-0.518;2023-07-28T00:40:41;99551.69;;;22.65;50.27
39435;BME280;66825;51.880;-0.518;2023-07-28T00:43:07;99551.75;;;22.68;50.38
39435;BME280;66825;51.880;-0.518;2023-07-28T00:45:33;99556.09;;;22.69;50.39
39435;BME280;66825;51.880;-0.518;2023-07-28T00:48:00;99544.22;;;22.65;50.48
39435;BME280;66825;51.880;-0.518;2023-07-28T00:50:26;99548.56;;;22.66;50.28
39435;BME280;66825;51.880;-0.518;2023-07-28T00:52:52;99529.47;;;22.54;50.47
39435;BME280;66825;51.880;-0.518;2023-07-28T00:55:17;99551.31;;;22.66;50.31
39435;BME280;66825;51.880;-0.518;2023-07-28T00:57:43;99550.50;;;22.66;50.39
39435;BME280;66825;51.880;-0.518;2023-07-28T01:00:09;99552.47;;;22.65;50.33
39435;BME280;66825;51.880;-0.518;2023-07-28T01:02:35;99557.19;;;22.65;50.34
39435;BME280;66825;51.880;-0.518;2023-07-28T01:05:02;99548.13;;;22.64;50.20
39435;BME280;66825;51.880;-0.518;2023-07-28T01:07:38;99552.47;;;22.65;50.24
39435;BME280;66825;51.880;-0.518;2023-07-28T01:10:13;99556.38;;;22.64;50.25
39435;BME280;66825;51.880;-0.518;2023-07-28T01:12:40;99566.56;;;22.64;50.28
39435;BME280;66825;51.880;-0.518;2023-07-28T01:15:06;99564.97;;;22.63;50.31
39435;BME280;66825;51.880;-0.518;2023-07-28T01:17:32;99541.16;;;22.51;50.33
39435;BME280;66825;51.880;-0.518;2023-07-28T01:19:57;99562.59;;;22.61;50.26
39435;BME280;66825;51.880;-0.518;2023-07-28T01:28:15;99557.44;;;22.60;50.35
39435;BME280;66825;51.880;-0.518;2023-07-28T01:30:42;99564.88;;;22.59;50.11
39435;BME280;66825;51.880;-0.518;2023-07-28T01:33:08;99564.34;;;22.53;50.22
39435;BME280;66825;51.880;-0.518;2023-07-28T01:35:35;99564.25;;;22.50;50.33
39435;BME280;66825;51.880;-0.518;2023-07-28T01:38:01;99570.38;;;22.59;50.35
39435;BME280;66825;51.880;-0.518;2023-07-28T01:40:27;99571.88;;;22.57;50.22
39435;BME280;66825;51.880;-0.518;2023-07-28T01:42:52;99563.66;;;22.57;50.27
39435;BME280;66825;51.880;-0.518;2023-07-28T01:45:17;99578.16;;;22.57;50.13
39435;BME280;66825;51.880;-0.518;2023-07-28T01:47:43;99570.28;;;22.56;50.28
39435;BME280;66825;51.880;-0.518;2023-07-28T01:50:08;99573.03;;;22.56;50.24
39435;BME280;66825;51.880;-0.518;2023-07-28T01:52:34;99573.03;;;22.56;50.29
39435;BME280;66825;51.880;-0.518;2023-07-28T01:54:59;99553.47;;;22.41;50.16
39435;BME280;66825;51.880;-0.518;2023-07-28T01:57:25;99579.66;;;22.55;50.19
39435;BME280;66825;51.880;-0.518;2023-07-28T01:59:53;99576.91;;;22.55;50.28
39435;BME280;66825;51.880;-0.518;2023-07-28T02:02:19;99578.88;;;22.54;50.30
39435;BME280;66825;51.880;-0.518;2023-07-28T02:04:44;99568.06;;;22.45;50.23
39435;BME280;66825;51.880;-0.518;2023-07-28T02:07:09;99581.63;;;22.54;50.23
39435;BME280;66825;51.880;-0.518;2023-07-28T02:09:35;99575.31;;;22.53;50.22
39435;BME280;66825;51.880;-0.518;2023-07-28T02:12:00;99521.50;;;22.17;50.34
39435;BME280;66825;51.880;-0.518;2023-07-28T02:14:26;99576.47;;;22.52;50.17
39435;BME280;66825;51.880;-0.518;2023-07-28T02:16:51;99570.97;;;22.52;50.25
39435;BME280;66825;51.880;-0.518;2023-07-28T02:19:17;99565.06;;;22.50;50.36
39435;BME280;66825;51.880;-0.518;2023-07-28T02:21:42;99566.63;;;22.51;50.17
39435;BME280;66825;51.880;-0.518;2023-07-28T02:24:07;99567.81;;;22.50;50.17
39435;BME280;66825;51.880;-0.518;2023-07-28T02:26:33;99566.63;;;22.51;50.17
39435;BME280;66825;51.880;-0.518;2023-07-28T02:28:58;99557.53;;;22.47;50.26
39435;BME280;66825;51.880;-0.518;2023-07-28T02:31:24;99554.88;;;22.51;50.17
39435;BME280;66825;51.880;-0.518;2023-07-28T02:33:49;99561.88;;;22.48;50.27
39435;BME280;66825;51.880;-0.518;2023-07-28T02:36:14;99565.41;;;22.49;50.07
39435;BME280;66825;51.880;-0.518;2023-07-28T02:38:40;99552.81;;;22.48;50.07
39435;BME280;66825;51.880;-0.518;2023-07-28T02:41:05;99560.28;;;22.47;50.11
39435;BME280;66825;51.880;-0.518;2023-07-28T02:43:31;99553.19;;;22.46;50.20
39435;BME280;66825;51.880;-0.518;2023-07-28T02:45:57;99556.75;;;22.47;49.96
39435;BME280;66825;51.880;-0.518;2023-07-28T02:48:23;99561.44;;;22.46;50.25
39435;BME280;66825;51.880;-0.518;2023-07-28T02:50:50;99559.81;;;22.45;50.21
39435;BME280;66825;51.880;-0.518;2023-07-28T02:53:16;99548.19;;;22.36;50.19
39435;BME280;66825;51.880;-0.518;2023-07-28T02:55:43;99551.59;;;22.45;50.12
39435;BME280;66825;51.880;-0.518;2023-07-28T02:58:09;99561.78;;;22.45;49.89
39435;BME280;66825;51.880;-0.518;2023-07-28T03:00:37;99556.31;;;22.45;50.08
39435;BME280;66825;51.880;-0.518;2023-07-28T03:03:04;99554.69;;;22.44;50.17
39435;BME280;66825;51.880;-0.518;2023-07-28T03:05:31;99564.88;;;22.43;50.08
39435;BME280;66825;51.880;-0.518;2023-07-28T03:07:56;99561.34;;;22.43;50.09
39435;BME280;66825;51.880;-0.518;2023-07-28T03:10:22;99557.81;;;22.42;50.03
39435;BME280;66825;51.880;-0.518;2023-07-28T03:12:47;99567.59;;;22.43;50.11
39435;BME280;66825;51.880;-0.518;2023-07-28T03:15:13;99566.03;;;22.42;50.12
39435;BME280;66825;51.880;-0.518;2023-07-28T03:17:38;99570.72;;;22.42;50.16
39435;BME280;66825;51.880;-0.518;2023-07-28T03:20:04;99565.09;;;22.38;50.04
39435;BME280;66825;51.880;-0.518;2023-07-28T03:22:30;99522.88;;;22.11;50.13
39435;BME280;66825;51.880;-0.518;2023-07-28T03:24:56;99563.22;;;22.39;50.13
39435;BME280;66825;51.880;-0.518;2023-07-28T03:27:21;99571.88;;;22.41;50.18
39435;BME280;66825;51.880;-0.518;2023-07-28T03:29:47;99562.84;;;22.40;50.15
39435;BME280;66825;51.880;-0.518;2023-07-28T03:32:12;99562.38;;;22.38;49.96
39435;BME280;66825;51.880;-0.518;2023-07-28T03:34:38;99550.34;;;22.27;50.05
39435;BME280;66825;51.880;-0.518;2023-07-28T03:37:03;99513.69;;;22.03;49.99
39435;BME280;66825;51.880;-0.518;2023-07-28T03:39:29;99574.19;;;22.39;50.00
39435;BME280;66825;51.880;-0.518;2023-07-28T03:41:56;99567.84;;;22.38;50.12
39435;BME280;66825;51.880;-0.518;2023-07-28T03:44:22;99543.63;;;22.24;50.18
39435;BME280;66825;51.880;-0.518;2023-07-28T03:46:47;99502.81;;;21.91;50.14
39435;BME280;66825;51.880;-0.518;2023-07-28T03:49:12;99506.34;;;21.91;50.15
39435;BME280;66825;51.880;-0.518;2023-07-28T03:51:38;99563.88;;;22.35;50.28
39435;BME280;66825;51.880;-0.518;2023-07-28T03:54:03;99575.63;;;22.36;50.12
39435;BME280;66825;51.880;-0.518;2023-07-28T03:56:29;99572.09;;;22.35;50.12
39435;BME280;66825;51.880;-0.518;2023-07-28T03:58:54;99574.06;;;22.35;50.07
39435;BME280;66825;51.880;-0.518;2023-07-28T04:01:20;99577.97;;;22.34;49.97
39435;BME280;66825;51.880;-0.518;2023-07-28T04:03:47;99575.22;;;22.34;50.15
39435;BME280;66825;51.880;-0.518;2023-07-28T04:06:13;99577.16;;;22.33;50.15
39435;BME280;66825;51.880;-0.518;2023-07-28T04:08:39;99584.59;;;22.33;50.24
39435;BME280;66825;51.880;-0.518;2023-07-28T04:11:05;99567.94;;;22.26;50.21
39435;BME280;66825;51.880;-0.518;2023-07-28T04:13:31;99583.78;;;22.32;50.13
39435;BME280;66825;51.880;-0.518;2023-07-28T04:15:57;99574.31;;;22.30;50.10
39435;BME280;66825;51.880;-0.518;2023-07-28T04:18:23;99575.91;;;22.31;50.19
39435;BME280;66825;51.880;-0.518;2023-07-28T04:20:48;99572.03;;;22.32;50.06
39435;BME280;66825;51.880;-0.518;2023-07-28T04:23:14;99586.88;;;22.31;50.06
39435;BME280;66825;51.880;-0.518;2023-07-28T04:25:39;99587.25;;;22.29;50.08
39435;BME280;66825;51.880;-0.518;2023-07-28T04:28:05;99533.50;;;21.96;49.99
39435;BME280;66825;51.880;-0.518;2023-07-28T04:30:30;99567.78;;;22.18;49.91
39435;BME280;66825;51.880;-0.518;2023-07-28T04:32:56;99590.00;;;22.29;50.03
39435;BME280;66825;51.880;-0.518;2023-07-28T04:35:21;99591.13;;;22.28;50.08
39435;BME280;66825;51.880;-0.518;2023-07-28T04:37:47;99589.44;;;22.24;50.21
39435;BME280;66825;51.880;-0.518;2023-07-28T04:40:12;99586.97;;;22.18;50.09
39435;BME280;66825;51.880;-0.518;2023-07-28T04:42:38;99600.50;;;22.27;49.84
39435;BME280;66825;51.880;-0.518;2023-07-28T04:45:04;99592.66;;;22.26;50.23
39435;BME280;66825;51.880;-0.518;2023-07-28T04:47:30;99591.50;;;22.27;50.02
39435;BME280;66825;51.880;-0.518;2023-07-28T04:49:55;99593.78;;;22.25;50.18
39435;BME280;66825;51.880;-0.518;2023-07-28T04:52:21;99589.09;;;22.25;49.96
39435;BME280;66825;51.880;-0.518;2023-07-28T04:54:46;99591.03;;;22.25;50.03
39435;BME280;66825;51.880;-0.518;2023-07-28T04:57:12;99595.75;;;22.24;50.03
39435;BME280;66825;51.880;-0.518;2023-07-28T04:59:37;99587.66;;;22.15;50.11
39435;BME280;66825;51.880;-0.518;2023-07-28T05:02:03;99600.41;;;22.24;50.16
39435;BME280;66825;51.880;-0.518;2023-07-28T05:04:29;99480.88;;;21.46;50.05
39435;BME280;66825;51.880;-0.518;2023-07-28T05:06:54;99598.81;;;22.23;49.92
39435;BME280;66825;51.880;-0.518;2023-07-28T05:09:20;99599.19;;;22.21;49.99
39435;BME280;66825;51.880;-0.518;2023-07-28T05:11:45;99599.97;;;22.21;50.07
39435;BME280;66825;51.880;-0.518;2023-07-28T05:14:11;99602.72;;;22.21;50.22
39435;BME280;66825;51.880;-0.518;2023-07-28T05:16:36;99597.22;;;22.21;50.13
39435;BME280;66825;51.880;-0.518;2023-07-28T05:19:06;99595.28;;;22.22;50.08
39435;BME280;66825;51.880;-0.518;2023-07-28T05:21:31;99598.41;;;22.20;50.06
39435;BME280;66825;51.880;-0.518;2023-07-28T05:23:57;99592.91;;;22.20;50.05
39435;BME280;66825;51.880;-0.518;2023-07-28T05:26:22;99585.81;;;22.19;49.96
39435;BME280;66825;51.880;-0.518;2023-07-28T05:28:48;99588.56;;;22.19;50.19
39435;BME280;66825;51.880;-0.518;2023-07-28T05:31:13;99588.13;;;22.17;50.12
39435;BME280;66825;51.880;-0.518;2023-07-28T05:33:40;99598.72;;;22.19;49.97
39435;BME280;66825;51.880;-0.518;2023-07-28T05:36:06;99597.94;;;22.18;50.15
39435;BME280;66825;51.880;-0.518;2023-07-28T05:38:31;99599.09;;;22.17;50.14
39435;BME280;66825;51.880;-0.518;2023-07-28T05:41:01;99604.56;;;22.17;50.10
39435;BME280;66825;51.880;-0.518;2023-07-28T05:43:31;99612.03;;;22.17;49.85
39435;BME280;66825;51.880;-0.518;2023-07-28T05:45:58;99605.72;;;22.16;50.22
39435;BME280;66825;51.880;-0.518;2023-07-28T05:48:23;99599.78;;;22.14;50.10
39435;BME280;66825;51.880;-0.518;2023-07-28T05:50:49;99607.91;;;22.11;50.06
39435;BME280;66825;51.880;-0.518;2023-07-28T05:53:16;99605.63;;;22.13;49.90
39435;BME280;66825;51.880;-0.518;2023-07-28T05:55:42;99605.88;;;22.08;50.31
39435;BME280;66825;51.880;-0.518;2023-07-28T05:58:07;99603.34;;;22.15;50.01
39435;BME280;66825;51.880;-0.518;2023-07-28T06:00:33;99611.56;;;22.15;50.01
39435;BME280;66825;51.880;-0.518;2023-07-28T06:02:58;99618.97;;;22.14;49.97
39435;BME280;66825;51.880;-0.518;2023-07-28T06:05:23;99540.72;;;21.72;49.95
39435;BME280;66825;51.880;-0.518;2023-07-28T06:07:49;99614.66;;;22.13;50.07
39435;BME280;66825;51.880;-0.518;2023-07-28T06:10:14;99609.97;;;22.14;50.05
39435;BME280;66825;51.880;-0.518;2023-07-28T06:12:40;99608.00;;;22.14;50.10
39435;BME280;66825;51.880;-0.518;2023-07-28T06:15:06;99605.63;;;22.13;49.97
39435;BME280;66825;51.880;-0.518;2023-07-28T06:17:32;99599.25;;;22.09;50.03
39435;BME280;66825;51.880;-0.518;2023-07-28T06:19:58;99613.84;;;22.13;50.08
39435;BME280;66825;51.880;-0.518;2023-07-28T06:22:23;99601.28;;;22.12;50.13
39435;BME280;66825;51.880;-0.518;2023-07-28T06:24:49;99602.09;;;22.12;50.07
39435;BME280;66825;51.880;-0.518;2023-07-28T06:27:15;99605.63;;;22.13;49.92
39435;BME280;66825;51.880;-0.518;2023-07-28T06:29:41;99553.81;;;21.79;49.98
39435;BME280;66825;51.880;-0.518;2023-07-28T06:32:07;99611.09;;;22.13;50.02
39435;BME280;66825;51.880;-0.518;2023-07-28T06:34:32;99604.03;;;22.12;50.03
39435;BME280;66825;51.880;-0.518;2023-07-28T06:36:58;99598.53;;;22.12;49.94
39435;BME280;66825;51.880;-0.518;2023-07-28T06:39:23;99608.72;;;22.11;49.90
39435;BME280;66825;51.880;-0.518;2023-07-28T06:41:50;99557.38;;;21.80;50.09
39435;BME280;66825;51.880;-0.518;2023-07-28T06:44:16;99620.47;;;22.12;50.08
39435;BME280;66825;51.880;-0.518;2023-07-28T06:46:41;99614.22;;;22.11;50.21
39435;BME280;66825;51.880;-0.518;2023-07-28T06:49:07;99615.16;;;22.03;50.14
39435;BME280;66825;51.880;-0.518;2023-07-28T06:51:32;99622.44;;;22.11;50.10
39435;BME280;66825;51.880;-0.518;2023-07-28T06:53:59;99628.72;;;22.12;50.33
39435;BME280;66825;51.880;-0.518;2023-07-28T06:56:24;99617.47;;;22.01;50.22
39435;BME280;66825;51.880;-0.518;2023-07-28T06:58:51;99636.94;;;22.12;50.35
39435;BME280;66825;51.880;-0.518;2023-07-28T07:01:16;99632.59;;;22.11;50.35
39435;BME280;66825;51.880;-0.518;2023-07-28T07:03:43;99630.66;;;22.11;50.29
39435;BME280;66825;51.880;-0.518;2023-07-28T07:06:09;99632.59;;;22.11;50.26
39435;BME280;66825;51.880;-0.518;2023-07-28T07:08:34;99640.03;;;22.10;50.36
39435;BME280;66825;51.880;-0.518;2023-07-28T07:10:59;99643.56;;;22.11;50.34
39435;BME280;66825;51.880;-0.518;2023-07-28T07:13:25;99645.53;;;22.10;50.31
39435;BME280;66825;51.880;-0.518;2023-07-28T07:15:51;99649.06;;;22.11;50.33
39435;BME280;66825;51.880;-0.518;2023-07-28T07:18:17;99641.34;;;22.00;50.31
39435;BME280;66825;51.880;-0.518;2023-07-28T07:20:42;99599.53;;;21.75;50.24
39435;BME280;66825;51.880;-0.518;2023-07-28T07:23:07;99649.88;;;22.11;50.33
39435;BME280;66825;51.880;-0.518;2023-07-28T07:25:33;99636.13;;;21.95;50.40
39435;BME280;66825;51.880;-0.518;2023-07-28T07:27:58;99662.00;;;22.10;50.33
39435;BME280;66825;51.880;-0.518;2023-07-28T07:30:24;99664.72;;;22.10;50.35
39435;BME280;66825;51.880;-0.518;2023-07-28T07:32:50;99656.50;;;22.10;50.43
39435;BME280;66825;51.880;-0.518;2023-07-28T07:35:15;99660.38;;;22.09;50.24
39435;BME280;66825;51.880;-0.518;2023-07-28T07:37:41;99654.91;;;22.09;50.18
39435;BME280;66825;51.880;-0.518;2023-07-28T07:40:07;99647.03;;;22.08;50.29
39435;BME280;66825;51.880;-0.518;2023-07-28T07:42:47;99650.22;;;22.10;50.34
39435;BME280;66825;51.880;-0.518;2023-07-28T07:45:13;99655.72;;;22.10;50.25
39435;BME280;66825;51.880;-0.518;2023-07-28T07:47:39;99658.47;;;22.10;50.35
39435;BME280;66825;51.880;-0.518;2023-07-28T07:50:06;99661.19;;;22.10;50.36
39435;BME280;66825;51.880;-0.518;2023-07-28T07:52:34;99656.88;;;22.09;50.37
39435;BME280;66825;51.880;-0.518;2023-07-28T07:55:01;99653.84;;;22.14;50.41
39435;BME280;66825;51.880;-0.518;2023-07-28T07:57:26;99646.09;;;22.16;50.64
39435;BME280;66825;51.880;-0.518;2023-07-28T07:59:52;99640.59;;;22.16;50.87
39435;BME280;66825;51.880;-0.518;2023-07-28T08:02:17;99646.88;;;22.16;51.04
39435;BME280;66825;51.880;-0.518;2023-07-28T08:04:43;99640.13;;;22.14;51.01
39435;BME280;66825;51.880;-0.518;2023-07-28T08:07:08;99650.06;;;22.18;51.07
39435;BME280;66825;51.880;-0.518;2023-07-28T08:09:34;99644.03;;;22.13;51.07
39435;BME280;66825;51.880;-0.518;2023-07-28T08:12:00;99657.16;;;22.19;51.19
39435;BME280;66825;51.880;-0.518;2023-07-28T08:14:25;99648.91;;;22.19;51.22
39435;BME280;66825;51.880;-0.518;2023-07-28T08:16:51;99647.78;;;22.20;51.28
39435;BME280;66825;51.880;-0.518;2023-07-28T08:19:16;99646.59;;;22.21;51.31
39435;BME280;66825;51.880;-0.518;2023-07-28T08:21:42;99659.09;;;22.19;51.38
39435;BME280;66825;51.880;-0.518;2023-07-28T08:24:08;99656.44;;;22.23;51.57
39435;BME280;66825;51.880;-0.518;2023-07-28T08:26:33;99651.75;;;22.23;51.54
39435;BME280;66825;51.880;-0.518;2023-07-28T08:28:59;99653.25;;;22.20;51.57
39435;BME280;66825;51.880;-0.518;2023-07-28T08:31:24;99657.66;;;22.25;51.92
39435;BME280;66825;51.880;-0.518;2023-07-28T08:33:50;99658.47;;;22.26;51.88
39435;BME280;66825;51.880;-0.518;2023-07-28T08:36:15;99656.19;;;22.28;51.98
39435;BME280;66825;51.880;-0.518;2023-07-28T08:38:41;99661.69;;;22.28;52.17
39435;BME280;66825;51.880;-0.518;2023-07-28T08:41:06;99597.44;;;21.84;52.14
39435;BME280;66825;51.880;-0.518;2023-07-28T08:43:32;99664.84;;;22.30;52.03
39435;BME280;66825;51.880;-0.518;2023-07-28T08:45:58;99667.59;;;22.30;52.10
39435;BME280;66825;51.880;-0.518;2023-07-28T08:48:24;99668.06;;;22.32;52.23
39435;BME280;66825;51.880;-0.518;2023-07-28T08:50:49;99656.28;;;22.31;52.44
39435;BME280;66825;51.880;-0.518;2023-07-28T08:53:16;99669.66;;;22.33;52.46
39435;BME280;66825;51.880;-0.518;2023-07-28T08:55:42;99675.94;;;22.33;52.53
39435;BME280;66825;51.880;-0.518;2023-07-28T08:58:21;99664.94;;;22.33;53.05
39435;BME280;66825;51.880;-0.518;2023-07-28T09:00:48;99665.41;;;22.35;52.84
39435;BME280;66825;51.880;-0.518;2023-07-28T09:03:15;99661.50;;;22.36;52.80
39435;BME280;66825;51.880;-0.518;2023-07-28T09:05:45;99662.31;;;22.37;52.74
39435;BME280;66825;51.880;-0.518;2023-07-28T09:08:16;99657.97;;;22.36;52.88
39435;BME280;66825;51.880;-0.518;2023-07-28T09:10:44;99660.03;;;22.39;52.72
39435;BME280;66825;51.880;-0.518;2023-07-28T09:13:11;99657.28;;;22.39;52.85
39435;BME280;66825;51.880;-0.518;2023-07-28T09:15:37;99657.75;;;22.41;52.65
39435;BME280;66825;51.880;-0.518;2023-07-28T09:18:03;99654.66;;;22.43;52.60
39435;BME280;66825;51.880;-0.518;2023-07-28T09:20:36;99664.47;;;22.44;52.27
39435;BME280;66825;51.880;-0.518;2023-07-28T09:23:03;99665.25;;;22.44;52.27
39435;BME280;66825;51.880;-0.518;2023-07-28T09:25:29;99673.06;;;22.42;52.11
39435;BME280;66825;51.880;-0.518;2023-07-28T09:27:58;99673.94;;;22.46;52.18
39435;BME280;66825;51.880;-0.518;2023-07-28T09:30:24;99670.41;;;22.46;52.12
39435;BME280;66825;51.880;-0.518;2023-07-28T09:32:54;99675.53;;;22.47;52.23
39435;BME280;66825;51.880;-0.518;2023-07-28T09:35:22;99669.69;;;22.49;52.31
39435;BME280;66825;51.880;-0.518;2023-07-28T09:37:49;99672.09;;;22.50;52.21
39435;BME280;66825;51.880;-0.518;2023-07-28T09:40:20;99656.81;;;22.37;52.35
39435;BME280;66825;51.880;-0.518;2023-07-28T09:42:47;99679.97;;;22.52;52.29
39435;BME280;66825;51.880;-0.518;2023-07-28T09:45:17;99677.25;;;22.52;51.78
39435;BME280;66825;51.880;-0.518;2023-07-28T09:47:44;99660.13;;;22.43;52.06
39435;BME280;66825;51.880;-0.518;2023-07-28T09:50:11;99643.25;;;22.28;52.15
39435;BME280;66825;51.880;-0.518;2023-07-28T09:52:42;99638.81;;;22.24;52.03
39435;BME280;66825;51.880;-0.518;2023-07-28T09:55:09;99689.09;;;22.56;52.26
39435;BME280;66825;51.880;-0.518;2023-07-28T09:57:43;99631.31;;;22.20;52.05
39435;BME280;66825;51.880;-0.518;2023-07-28T10:00:11;99686.03;;;22.58;51.81
39435;BME280;66825;51.880;-0.518;2023-07-28T10:02:38;99693.06;;;22.59;51.78
39435;BME280;66825;51.880;-0.518;2023-07-28T10:05:06;99694.25;;;22.58;51.74
39435;BME280;66825;51.880;-0.518;2023-07-28T10:07:39;99676.97;;;22.57;51.52
39435;BME280;66825;51.880;-0.518;2023-07-28T10:10:06;99667.41;;;22.51;51.60
39435;BME280;66825;51.880;-0.518;2023-07-28T10:12:48;99664.56;;;22.47;51.71
39435;BME280;66825;51.880;-0.518;2023-07-28T10:15:17;99680.63;;;22.61;51.49
39435;BME280;66825;51.880;-0.518;2023-07-28T10:18:01;99683.38;;;22.61;51.53
39435;BME280;66825;51.880;-0.518;2023-07-28T10:22:53;99674.78;;;22.63;51.32
39435;BME280;66825;51.880;-0.518;2023-07-28T10:25:22;99664.84;;;22.58;51.43
39435;BME280;66825;51.880;-0.518;2023-07-28T10:27:50;99681.84;;;22.64;51.22
39435;BME280;66825;51.880;-0.518;2023-07-28T10:30:15;99671.56;;;22.61;51.35
39435;BME280;66825;51.880;-0.518;2023-07-28T10:32:45;99673.63;;;22.64;51.60
39435;BME280;66825;51.880;-0.518;2023-07-28T10:37:46;99684.69;;;22.67;51.37
39435;BME280;66825;51.880;-0.518;2023-07-28T10:40:31;99687.06;;;22.69;51.22
39435;BME280;66825;51.880;-0.518;2023-07-28T10:42:57;99673.16;;;22.62;51.59
39435;BME280;66825;51.880;-0.518;2023-07-28T10:45:25;99691.06;;;22.72;51.56
39435;BME280;66825;51.880;-0.518;2023-07-28T10:47:53;99683.28;;;22.74;51.83
39435;BME280;66825;51.880;-0.518;2023-07-28T10:50:21;99685.28;;;22.77;51.44
39435;BME280;66825;51.880;-0.518;2023-07-28T10:52:46;99663.88;;;22.66;51.78
39435;BME280;66825;51.880;-0.518;2023-07-28T10:55:13;99679.91;;;22.80;51.42
39435;BME280;66825;51.880;-0.518;2023-07-28T10:57:43;99679.91;;;22.80;51.30
39435;BME280;66825;51.880;-0.518;2023-07-28T11:00:10;99664.06;;;22.74;51.30
39435;BME280;66825;51.880;-0.518;2023-07-28T11:02:55;99679.19;;;22.83;51.23
39435;BME280;66825;51.880;-0.518;2023-07-28T11:05:25;99676.53;;;22.87;51.26
39435;BME280;66825;51.880;-0.518;2023-07-28T11:07:51;99623.59;;;22.55;51.10
39435;BME280;66825;51.880;-0.518;2023-07-28T11:10:18;99673.44;;;22.89;51.34
39435;BME280;66825;51.880;-0.518;2023-07-28T11:12:45;99677.78;;;22.90;51.38
39435;BME280;66825;51.880;-0.518;2023-07-28T11:15:12;99681.34;;;22.90;51.29
39435;BME280;66825;51.880;-0.518;2023-07-28T11:17:40;99681.75;;;22.92;51.22
39435;BME280;66825;51.880;-0.518;2023-07-28T11:22:45;99685.72;;;22.95;50.93
39435;BME280;66825;51.880;-0.518;2023-07-28T11:25:12;99691.69;;;22.97;51.07
39435;BME280;66825;51.880;-0.518;2023-07-28T11:27:39;99692.50;;;22.97;50.97
39435;BME280;66825;51.880;-0.518;2023-07-28T11:30:08;99693.28;;;22.98;50.93
39435;BME280;66825;51.880;-0.518;2023-07-28T11:32:36;99636.44;;;22.66;50.88
39435;BME280;66825;51.880;-0.518;2023-07-28T11:35:06;99692.22;;;23.03;50.66
39435;BME280;66825;51.880;-0.518;2023-07-28T11:37:35;99693.81;;;23.04;50.80
39435;BME280;66825;51.880;-0.518;2023-07-28T11:40:02;99689.91;;;23.05;50.69
39435;BME280;66825;51.880;-0.518;2023-07-28T11:42:33;99683.88;;;22.99;50.50
39435;BME280;66825;51.880;-0.518;2023-07-28T11:45:00;99692.31;;;23.06;50.73
39435;BME280;66825;51.880;-0.518;2023-07-28T11:47:26;99684.50;;;23.08;50.52
39435;BME280;66825;51.880;-0.518;2023-07-28T11:49:51;99679.72;;;23.05;50.54
39435;BME280;66825;51.880;-0.518;2023-07-28T11:52:17;99683.00;;;23.11;50.52
39435;BME280;66825;51.880;-0.518;2023-07-28T11:54:43;99656.69;;;22.94;50.28
39435;BME280;66825;51.880;-0.518;2023-07-28T11:57:10;99686.88;;;23.10;50.32
39435;BME280;66825;51.880;-0.518;2023-07-28T11:59:35;99683.00;;;23.11;50.27
39435;BME280;66825;51.880;-0.518;2023-07-28T12:02:03;99694.06;;;23.14;50.34
39435;BME280;66825;51.880;-0.518;2023-07-28T12:04:31;99688.94;;;23.13;50.20
39435;BME280;66825;51.880;-0.518;2023-07-28T12:07:04;99686.19;;;23.13;50.16
39435;BME280;66825;51.880;-0.518;2023-07-28T12:12:21;99694.53;;;23.16;50.25
39435;BME280;66825;51.880;-0.518;2023-07-28T12:14:46;99686.53;;;23.11;49.96
39435;BME280;66825;51.880;-0.518;2023-07-28T12:17:13;99689.34;;;23.15;49.71
39435;BME280;66825;51.880;-0.518;2023-07-28T12:19:54;99700.34;;;23.15;49.50
39435;BME280;66825;51.880;-0.518;2023-07-28T12:22:19;99695.66;;;23.15;49.23
39435;BME280;66825;51.880;-0.518;2023-07-28T12:24:45;99650.22;;;22.86;49.13
39435;BME280;66825;51.880;-0.518;2023-07-28T12:27:10;99692.91;;;23.15;49.09
39435;BME280;66825;51.880;-0.518;2023-07-28T12:29:38;99690.50;;;23.14;49.02
39435;BME280;66825;51.880;-0.518;2023-07-28T12:32:04;99673.44;;;23.05;49.09
39435;BME280;66825;51.880;-0.518;2023-07-28T12:34:30;99690.19;;;23.15;49.38
39435;BME280;66825;51.880;-0.518;2023-07-28T12:36:55;99642.34;;;22.84;49.10
39435;BME280;66825;51.880;-0.518;2023-07-28T12:39:21;99686.59;;;23.15;49.33
39435;BME280;66825;51.880;-0.518;2023-07-28T12:41:46;99692.91;;;23.15;49.46
39435;BME280;66825;51.880;-0.518;2023-07-28T12:44:12;99680.34;;;23.14;49.16
39435;BME280;66825;51.880;-0.518;2023-07-28T12:46:37;99684.69;;;23.15;49.17
39435;BME280;66825;51.880;-0.518;2023-07-28T12:49:03;99687.09;;;23.17;49.33
39435;BME280;66825;51.880;-0.518;2023-07-28T12:51:30;99682.38;;;23.18;49.16
39435;BME280;66825;51.880;-0.518;2023-07-28T12:53:55;99574.00;;;22.47;49.21
39435;BME280;66825;51.880;-0.518;2023-07-28T12:56:21;99682.03;;;23.19;48.99
39435;BME280;66825;51.880;-0.518;2023-07-28T12:58:46;99684.44;;;23.21;48.99
39435;BME280;66825;51.880;-0.518;2023-07-28T13:01:11;99686.38;;;23.20;48.97
39435;BME280;66825;51.880;-0.518;2023-07-28T13:03:37;99684.78;;;23.19;48.70